Time;durP1;ratioP1;P1;durP2;ratioP2;P2;SDS_P1;SDS_P2;PMS_P1;PMS_P2;Temp;Humidity;BMP_temperature;BMP_pressure;BME280_temperature;BME280_humidity;BME280_pressure;Samples;Min_cycle;Max_cycle;Signal;HPM_P1;HPM_P2
2022/08/31 00:04:36;;;;;;;12.15;10.05;;;;;;;20.59;59.45;100714.00;5068057;28;20092;-64
2022/08/31 00:07:03;;;;;;;12.13;10.85;;;;;;;20.62;59.46;100700.31;5069157;28;20164;-66
2022/08/31 00:09:31;;;;;;;12.80;10.30;;;;;;;20.64;59.36;100709.28;5071771;28;20114;-64
2022/08/31 00:11:59;;;;;;;10.80;9.68;;;;;;;20.57;59.44;100687.94;5070625;28;20131;-64
2022/08/31 00:14:26;;;;;;;11.88;10.50;;;;;;;20.55;59.51;100683.81;5064056;28;20134;-64
2022/08/31 00:16:53;;;;;;;10.95;10.07;;;;;;;20.58;59.55;100677.44;5069058;28;20103;-66
2022/08/31 00:19:20;;;;;;;12.68;11.63;;;;;;;20.39;59.51;100646.69;5069277;28;20401;-65
2022/08/31 00:21:47;;;;;;;13.63;11.52;;;;;;;20.38;59.43;100636.53;5068448;28;20163;-65
2022/08/31 00:24:14;;;;;;;11.90;10.55;;;;;;;20.57;59.43;100668.09;5063688;28;20091;-64
2022/08/31 00:26:41;;;;;;;16.40;11.75;;;;;;;20.69;59.63;100678.69;5071269;28;20131;-65
2022/08/31 00:29:09;;;;;;;12.32;11.18;;;;;;;20.67;59.52;100675.38;5068577;28;20127;-65
2022/08/31 00:31:36;;;;;;;12.70;11.38;;;;;;;20.64;59.53;100673.22;5065591;28;20135;-66
2022/08/31 00:34:03;;;;;;;10.90;9.90;;;;;;;20.69;59.24;100678.69;5071675;28;20060;-65
2022/08/31 00:36:30;;;;;;;13.02;11.50;;;;;;;20.75;59.35;100693.50;5072676;28;20088;-65
2022/08/31 00:38:57;;;;;;;12.57;11.50;;;;;;;20.73;59.25;100685.34;5076054;28;20053;-65
2022/08/31 00:41:27;;;;;;;12.73;11.55;;;;;;;20.73;59.34;100681.69;5074751;28;20071;-65
2022/08/31 00:44:00;;;;;;;13.68;12.45;;;;;;;20.71;59.15;100686.84;5072425;28;20081;-65
2022/08/31 00:46:33;;;;;;;13.20;10.20;;;;;;;20.64;59.27;100681.72;5072931;28;20135;-65
2022/08/31 00:49:12;;;;;;;11.98;10.77;;;;;;;20.63;59.29;100682.91;5070926;28;20132;-66
2022/08/31 00:52:01;;;;;;;11.07;10.27;;;;;;;20.49;59.39;100665.31;5084204;28;20060;-65
2022/08/31 00:54:33;;;;;;;17.48;11.02;;;;;;;20.39;59.78;100675.06;5058451;28;20082;-65
2022/08/31 00:57:01;;;;;;;12.25;10.57;;;;;;;20.23;59.81;100651.28;5066478;28;20072;-65
2022/08/31 00:59:28;;;;;;;11.85;10.82;;;;;;;20.22;60.12;100669.50;5069679;28;20086;-65
2022/08/31 01:01:55;;;;;;;12.07;10.90;;;;;;;20.21;59.95;100670.69;5069866;28;20575;-64
2022/08/31 01:04:22;;;;;;;10.68;9.77;;;;;;;20.15;60.21;100675.69;5069203;28;20634;-65
2022/08/31 01:06:50;;;;;;;10.02;9.35;;;;;;;20.11;60.15;100674.72;5072056;28;20084;-65
2022/08/31 01:09:21;;;;;;;10.35;9.65;;;;;;;20.16;59.99;100662.34;5067234;28;20144;-64
2022/08/31 01:11:49;;;;;;;11.05;9.98;;;;;;;19.95;60.56;100643.28;5071074;28;20136;-65
2022/08/31 01:14:16;;;;;;;11.43;10.48;;;;;;;19.78;60.78;100641.38;5067304;28;20090;-65
2022/08/31 01:16:50;;;;;;;11.00;10.25;;;;;;;19.68;60.73;100638.91;5064050;28;20041;-65
2022/08/31 01:19:32;;;;;;;12.35;11.10;;;;;;;19.78;61.03;100655.53;5072912;28;20098;-65
2022/08/31 01:22:02;;;;;;;10.60;9.70;;;;;;;19.72;61.06;100656.06;5067977;28;20160;-65
2022/08/31 01:24:29;;;;;;;;;;;;;;;19.59;61.66;100649.44;5066546;28;20509;-65
2022/08/31 01:27:02;;;;;;;10.93;10.05;;;;;;;19.69;61.18;100651.06;5067586;28;19928;-65
2022/08/31 01:29:31;;;;;;;10.68;9.35;;;;;;;19.73;61.28;100654.91;5083759;28;20564;-65
2022/08/31 01:31:58;;;;;;;14.90;9.70;;;;;;;19.68;61.48;100652.25;5064856;28;20127;-65
2022/08/31 01:34:25;;;;;;;10.75;9.95;;;;;;;19.73;61.06;100652.09;5083273;28;20481;-66
2022/08/31 01:36:53;;;;;;;11.30;9.90;;;;;;;19.85;60.78;100633.16;5068228;28;20051;-66
2022/08/31 01:39:20;;;;;;;11.52;10.65;;;;;;;19.91;60.64;100645.16;5070524;28;20080;-65
2022/08/31 01:41:47;;;;;;;11.95;10.85;;;;;;;20.07;60.54;100657.56;5069770;28;20083;-65
2022/08/31 01:44:17;;;;;;;12.63;11.35;;;;;;;20.12;59.98;100654.53;5064846;28;20111;-65
2022/08/31 01:46:45;;;;;;;11.20;10.10;;;;;;;20.18;59.73;100645.84;5066290;28;20143;-65
2022/08/31 01:49:14;;;;;;;10.65;9.88;;;;;;;20.00;60.15;100651.63;5067801;28;20476;-65
2022/08/31 01:51:42;;;;;;;13.07;11.75;;;;;;;20.01;60.34;100652.44;5070103;28;20128;-64
2022/08/31 01:54:09;;;;;;;12.25;11.05;;;;;;;19.97;60.13;100649.47;5068088;28;20075;-65
2022/08/31 01:56:40;;;;;;;10.82;9.82;;;;;;;20.04;59.98;100646.91;5061790;28;20479;-65
2022/08/31 01:59:10;;;;;;;11.05;10.05;;;;;;;19.98;60.27;100656.78;5081325;28;20461;-66
2022/08/31 02:01:41;;;;;;;9.90;9.18;;;;;;;20.07;59.71;100657.56;5064556;28;20147;-65
2022/08/31 02:04:10;;;;;;;11.13;10.20;;;;;;;20.10;59.48;100654.06;5069996;28;20049;-64
2022/08/31 02:06:41;;;;;;;12.97;9.90;;;;;;;20.07;59.61;100657.56;5065388;28;20144;-64
2022/08/31 02:09:09;;;;;;;10.50;9.60;;;;;;;20.02;59.27;100643.56;5069097;28;20083;-65
2022/08/31 02:11:36;;;;;;;10.13;9.15;;;;;;;19.99;59.64;100646.28;5069726;28;20143;-65
2022/08/31 02:14:04;;;;;;;10.77;9.77;;;;;;;19.83;59.58;100618.53;5070798;28;20128;-65
2022/08/31 02:16:32;;;;;;;10.10;9.15;;;;;;;19.91;59.62;100642.31;5069228;28;20139;-65
2022/08/31 02:18:58;;;;;;;10.45;9.40;;;;;;;19.78;59.39;100626.38;5067046;28;20062;-65
2022/08/31 02:21:25;;;;;;;11.15;10.07;;;;;;;19.79;59.34;100634.53;5067577;28;20075;-66
2022/08/31 02:23:52;;;;;;;13.07;9.70;;;;;;;19.69;59.58;100629.25;5066939;28;20142;-65
2022/08/31 02:26:21;;;;;;;15.10;10.30;;;;;;;19.83;59.38;100658.19;5066323;28;20127;-65
2022/08/31 02:28:48;;;;;;;13.02;11.57;;;;;;;19.79;59.71;100662.03;5069997;28;20297;-65
2022/08/31 02:31:16;;;;;;;12.13;11.05;;;;;;;19.74;59.94;100653.75;5067824;28;20079;-65
2022/08/31 02:33:43;;;;;;;11.18;10.15;;;;;;;19.61;60.02;100642.25;5066889;28;20055;-65
2022/08/31 02:36:10;;;;;;;11.18;10.23;;;;;;;19.71;59.89;100654.41;5069035;28;20566;-65
2022/08/31 02:38:38;;;;;;;11.23;10.23;;;;;;;19.69;60.30;100656.75;5070805;28;20053;-66
2022/08/31 02:41:05;;;;;;;11.93;10.98;;;;;;;19.76;60.48;100662.72;5069328;28;20143;-65
2022/08/31 02:43:32;;;;;;;12.73;11.63;;;;;;;19.72;60.12;100653.22;5067468;28;20076;-64
2022/08/31 02:45:59;;;;;;;11.48;10.48;;;;;;;19.62;60.34;100652.44;5065120;28;20483;-65
2022/08/31 02:48:26;;;;;;;12.00;10.88;;;;;;;19.56;60.20;100645.28;5069693;28;20136;-66
2022/08/31 02:50:53;;;;;;;10.95;9.98;;;;;;;19.64;60.26;100667.09;5065820;28;20051;-65
2022/08/31 02:53:22;;;;;;;11.18;10.23;;;;;;;19.68;60.48;100660.75;5070450;28;20144;-65
2022/08/31 02:55:49;;;;;;;11.20;10.30;;;;;;;19.50;60.18;100638.13;5062096;28;20133;-65
2022/08/31 02:58:16;;;;;;;12.07;11.15;;;;;;;19.54;60.19;100643.94;5068405;28;20098;-65
2022/08/31 03:00:49;;;;;;;12.60;11.60;;;;;;;19.63;60.14;100658.94;5068559;28;20048;-65
2022/08/31 03:03:16;;;;;;;12.55;11.10;;;;;;;19.59;59.97;100649.44;5069716;28;20080;-65
2022/08/31 03:05:43;;;;;;;12.05;10.95;;;;;;;19.55;59.74;100645.59;5073282;28;20555;-65
2022/08/31 03:08:10;;;;;;;12.00;11.02;;;;;;;19.47;59.96;100644.47;5045505;28;20076;-65
2022/08/31 03:10:37;;;;;;;11.73;10.63;;;;;;;19.49;60.17;100646.97;5070194;28;20083;-64
2022/08/31 03:13:04;;;;;;;13.20;12.02;;;;;;;19.62;59.96;100669.44;5060045;28;20076;-65
2022/08/31 03:15:31;;;;;;;11.63;10.60;;;;;;;19.40;60.09;100645.00;5068715;28;20078;-65
2022/08/31 03:17:58;;;;;;;12.20;11.05;;;;;;;19.37;59.94;100644.84;5069861;28;20044;-64
2022/08/31 03:20:26;;;;;;;12.80;11.80;;;;;;;19.32;59.79;100631.69;5060233;28;20052;-65
2022/08/31 03:22:54;;;;;;;22.08;11.40;;;;;;;19.51;60.17;100648.28;5068991;28;20127;-65
2022/08/31 03:25:24;;;;;;;12.30;11.30;;;;;;;19.21;60.08;100606.91;5068799;28;20054;-66
2022/08/31 03:27:51;;;;;;;12.18;11.27;;;;;;;19.49;60.16;100659.13;5065939;28;20047;-65
2022/08/31 03:30:21;;;;;;;12.38;11.23;;;;;;;19.50;60.04;100655.13;5066778;28;20079;-66
2022/08/31 03:32:49;;;;;;;;;;;;;;;19.46;59.96;100658.97;5065832;28;20056;-66
2022/08/31 03:35:18;;;;;;;14.55;11.02;;;;;;;19.37;59.56;100644.84;5068802;28;19927;-64
2022/08/31 03:37:45;;;;;;;12.20;10.73;;;;;;;19.30;59.67;100644.53;5065504;28;20105;-66
2022/08/31 03:40:12;;;;;;;12.23;11.07;;;;;;;19.33;59.78;100658.00;5067481;28;20086;-66
2022/08/31 03:42:40;;;;;;;11.80;10.80;;;;;;;19.13;60.05;100634.91;5064690;28;20497;-65
2022/08/31 03:45:07;;;;;;;13.57;11.60;;;;;;;19.25;59.91;100658.84;5075479;28;20094;-65
2022/08/31 03:47:35;;;;;;;12.73;11.38;;;;;;;19.25;60.31;100670.16;5066057;28;20488;-65
2022/08/31 03:50:11;;;;;;;12.45;11.35;;;;;;;19.27;60.63;100671.50;5064803;28;20139;-66
2022/08/31 03:52:38;;;;;;;11.13;10.20;;;;;;;19.27;60.43;100667.84;5070027;28;20160;-66
2022/08/31 03:55:06;;;;;;;11.35;10.20;;;;;;;19.24;60.77;100652.34;5064471;28;20512;-65
2022/08/31 03:57:33;;;;;;;10.65;9.82;;;;;;;19.33;61.03;100673.00;5055197;28;20048;-65
2022/08/31 04:00:01;;;;;;;11.73;10.68;;;;;;;19.21;60.90;100652.19;5070847;28;20478;-64
2022/08/31 04:02:28;;;;;;;10.80;9.90;;;;;;;19.20;61.04;100651.38;5064018;28;20044;-65
2022/08/31 04:04:59;;;;;;;11.65;10.57;;;;;;;19.29;61.09;100676.84;5076534;28;20040;-65
2022/08/31 04:07:26;;;;;;;11.73;10.77;;;;;;;19.31;61.38;100669.66;5067743;28;20147;-65
2022/08/31 04:09:54;;;;;;;11.10;9.82;;;;;;;19.42;61.07;100667.31;5068105;28;20059;-65
2022/08/31 04:12:21;;;;;;;11.30;10.13;;;;;;;19.49;60.99;100678.97;5081856;28;20091;-65
2022/08/31 04:14:48;;;;;;;11.57;10.48;;;;;;;19.41;60.92;100657.97;5065594;28;20045;-65
2022/08/31 04:17:15;;;;;;;11.98;10.75;;;;;;;19.31;60.80;100638.50;5065011;28;20131;-65
2022/08/31 04:19:42;;;;;;;10.50;9.43;;;;;;;19.61;60.97;100683.91;5061461;28;20068;-65
2022/08/31 04:22:09;;;;;;;11.20;10.20;;;;;;;19.50;61.02;100655.13;5059700;28;20083;-65
2022/08/31 04:24:36;;;;;;;13.40;12.10;;;;;;;19.73;61.08;100675.56;5070887;28;20056;-65
2022/08/31 04:27:03;;;;;;;11.70;10.52;;;;;;;19.73;61.07;100669.09;5071448;28;20049;-65
2022/08/31 04:29:30;;;;;;;12.30;10.13;;;;;;;19.62;60.87;100646.75;5064301;28;20135;-66
2022/08/31 04:31:57;;;;;;;13.73;12.63;;;;;;;19.78;60.50;100666.88;5062666;28;20136;-65
2022/08/31 04:34:24;;;;;;;11.45;10.32;;;;;;;19.80;60.84;100670.22;5066732;28;20143;-65
2022/08/31 04:36:51;;;;;;;10.95;10.07;;;;;;;19.86;60.65;100685.00;5064186;28;20469;-65
2022/08/31 04:39:19;;;;;;;11.88;10.88;;;;;;;19.89;60.75;100681.50;5067896;28;20127;-65
2022/08/31 04:41:49;;;;;;;12.07;11.10;;;;;;;19.88;60.54;100679.84;5068609;28;20389;-66
2022/08/31 04:44:16;;;;;;;11.55;10.48;;;;;;;19.95;60.72;100679.31;5066557;28;20131;-65
2022/08/31 04:46:45;;;;;;;11.32;10.43;;;;;;;19.90;60.62;100680.34;5065598;28;20048;-65
2022/08/31 04:49:14;;;;;;;10.55;9.65;;;;;;;20.01;60.51;100683.63;5071969;28;20083;-65
2022/08/31 04:51:43;;;;;;;12.30;11.15;;;;;;;19.90;60.46;100660.50;5070925;28;20064;-65
2022/08/31 04:54:11;;;;;;;12.95;10.80;;;;;;;20.00;60.50;100665.78;5070595;28;20131;-65
2022/08/31 04:56:41;;;;;;;11.48;10.50;;;;;;;19.72;60.60;100613.56;5072183;28;20461;-65
2022/08/31 04:59:11;;;;;;;11.95;10.82;;;;;;;20.11;60.46;100675.56;5065486;28;20465;-65
2022/08/31 05:01:43;;;;;;;12.48;10.90;;;;;;;20.06;60.47;100675.72;5067959;28;20132;-65
2022/08/31 05:04:13;;;;;;;12.10;11.00;;;;;;;20.11;60.63;100681.22;5070258;28;20524;-65
2022/08/31 05:06:43;;;;;;;11.73;10.57;;;;;;;20.12;60.31;100677.22;5071685;28;20135;-65
2022/08/31 05:09:13;;;;;;;11.38;10.43;;;;;;;20.12;60.30;100668.69;5071966;28;20470;-65
2022/08/31 05:11:42;;;;;;;12.25;11.15;;;;;;;20.09;60.04;100672.22;5070604;28;20049;-65
2022/08/31 05:14:09;;;;;;;15.82;12.43;;;;;;;19.96;59.93;100656.28;5064551;28;20148;-64
2022/08/31 05:16:38;;;;;;;11.95;11.05;;;;;;;20.18;60.01;100685.53;5051350;28;20056;-65
2022/08/31 05:19:05;;;;;;;13.45;12.18;;;;;;;20.21;60.02;100680.00;5066693;28;20047;-65
2022/08/31 05:21:35;;;;;;;12.63;11.38;;;;;;;19.88;59.92;100655.16;5067809;28;20464;-65
2022/08/31 05:24:15;;;;;;;12.80;11.77;;;;;;;20.23;59.98;100691.00;5070792;28;20076;-65
2022/08/31 05:26:45;;;;;;;11.98;11.00;;;;;;;20.20;60.07;100677.50;5071363;28;20051;-65
2022/08/31 05:29:14;;;;;;;13.00;11.82;;;;;;;20.23;60.11;100688.16;5069256;28;20049;-66
2022/08/31 05:31:42;;;;;;;12.65;11.30;;;;;;;20.25;60.14;100689.47;5069675;28;20476;-66
2022/08/31 05:34:11;;;;;;;13.35;11.82;;;;;;;20.18;60.25;100691.19;5051031;28;20143;-66
2022/08/31 05:36:39;;;;;;;11.80;10.60;;;;;;;20.10;60.09;100696.59;5066110;28;20080;-64
2022/08/31 05:39:08;;;;;;;14.77;11.40;;;;;;;20.21;60.30;100701.88;5062598;28;20041;-65
2022/08/31 05:41:35;;;;;;;15.07;11.57;;;;;;;20.25;60.41;100700.81;5067658;28;20084;-66
2022/08/31 05:44:04;;;;;;;12.60;11.52;;;;;;;20.18;60.34;100689.19;5064011;28;20056;-65
2022/08/31 05:46:30;;;;;;;12.17;11.17;;;;;;;20.21;59.81;100690.53;5068804;28;20568;-65
2022/08/31 05:48:58;;;;;;;15.27;11.85;;;;;;;20.28;60.14;100700.16;5073468;28;20836;-66
2022/08/31 05:51:25;;;;;;;12.55;11.05;;;;;;;20.09;60.03;100683.56;5062147;28;20115;-66
2022/08/31 05:53:51;;;;;;;13.70;11.68;;;;;;;20.08;60.25;100687.56;5066605;28;20110;-65
2022/08/31 05:56:26;;;;;;;14.13;13.13;;;;;;;20.24;60.16;100712.50;5066259;28;20127;-66
2022/08/31 05:58:55;;;;;;;13.23;12.23;;;;;;;20.26;60.24;100702.47;5066179;28;20055;-66
2022/08/31 06:01:34;;;;;;;16.45;12.25;;;;;;;20.24;60.43;100707.69;5063983;28;20055;-67
2022/08/31 06:04:01;;;;;;;13.70;11.93;;;;;;;20.24;60.72;100709.66;5061386;28;20048;-65
2022/08/31 06:06:29;;;;;;;14.15;12.23;;;;;;;20.21;60.40;100702.69;5065674;28;20049;-66
2022/08/31 06:08:56;;;;;;;13.40;12.32;;;;;;;20.23;60.71;100702.34;5069160;28;20135;-65
2022/08/31 06:11:26;;;;;;;12.98;11.88;;;;;;;20.19;60.66;100712.72;5065153;28;20064;-64
2022/08/31 06:13:54;;;;;;;;;;;;;;;19.93;60.91;100713.69;5059433;28;20096;-64
2022/08/31 06:16:22;;;;;;;12.23;11.32;;;;;;;19.95;60.70;100719.81;5064876;28;20066;-64
2022/08/31 06:18:49;;;;;;;14.38;12.88;;;;;;;19.89;60.56;100704.16;5075279;28;20094;-64
2022/08/31 06:21:22;;;;;;;13.63;12.52;;;;;;;19.97;60.67;100713.81;5067690;28;20123;-65
2022/08/31 06:23:51;;;;;;;13.65;12.07;;;;;;;19.96;60.70;100717.81;5065895;28;20060;-63
2022/08/31 06:26:20;;;;;;;15.40;14.38;;;;;;;19.94;60.65;100720.16;5068537;28;20143;-63
2022/08/31 06:28:50;;;;;;;13.27;12.33;;;;;;;19.87;60.79;100720.69;5065944;28;20492;-65
2022/08/31 06:31:25;;;;;;;13.68;12.27;;;;;;;19.68;60.97;100712.59;5063852;28;20444;-66
2022/08/31 06:33:54;;;;;;;13.20;12.20;;;;;;;19.74;60.93;100722.56;5065829;28;20535;-65
2022/08/31 06:36:24;;;;;;;12.77;11.68;;;;;;;19.72;60.96;100729.72;5068473;28;20131;-66
2022/08/31 06:38:53;;;;;;;12.40;11.55;;;;;;;19.70;60.81;100718.75;5061804;28;20076;-66
2022/08/31 06:41:27;;;;;;;14.82;13.73;;;;;;;19.57;60.93;100714.09;5064661;28;20076;-66
2022/08/31 06:44:00;;;;;;;14.65;12.30;;;;;;;19.71;61.03;100733.75;5064385;28;20063;-66
2022/08/31 06:46:30;;;;;;;13.75;12.48;;;;;;;19.70;61.03;100738.59;5063378;28;20127;-65
2022/08/31 06:48:58;;;;;;;13.32;12.45;;;;;;;19.59;60.79;100706.09;5062440;28;20496;-71
2022/08/31 06:51:25;;;;;;;13.48;12.13;;;;;;;19.85;61.04;100745.69;5065883;28;20170;-66
2022/08/31 06:53:53;;;;;;;13.07;11.90;;;;;;;19.78;60.56;100728.38;5063610;28;20718;-66
2022/08/31 06:56:27;;;;;;;13.93;12.82;;;;;;;19.73;60.88;100751.25;5062718;28;20113;-66
2022/08/31 06:58:54;;;;;;;13.02;11.60;;;;;;;19.56;61.17;100744.41;5067339;28;20481;-67
2022/08/31 07:01:27;;;;;;;14.38;13.07;;;;;;;19.58;61.08;100746.91;5069375;28;20486;-67
2022/08/31 07:04:04;;;;;;;13.48;12.48;;;;;;;19.60;61.35;100751.06;5067725;28;20056;-67
2022/08/31 07:06:36;;;;;;;15.38;14.23;;;;;;;19.64;60.76;100729.44;5069006;28;20056;-67
2022/08/31 07:09:07;;;;;;;14.05;12.20;;;;;;;20.13;60.48;100757.41;5066281;28;20063;-67
2022/08/31 07:11:41;;;;;;;13.73;12.48;;;;;;;20.35;60.25;100748.66;5066016;28;20142;-67
2022/08/31 07:14:13;;;;;;;13.23;12.07;;;;;;;20.41;59.93;100737.09;5065143;28;20048;-66
2022/08/31 07:16:42;;;;;;;13.38;12.10;;;;;;;20.61;59.80;100744.84;5060412;28;20045;-66
2022/08/31 07:19:11;;;;;;;13.68;12.35;;;;;;;20.72;59.45;100739.63;5065559;28;20106;-66
2022/08/31 07:21:45;;;;;;;17.45;15.63;;;;;;;21.13;58.99;100761.50;5066027;28;20082;-70
2022/08/31 07:24:22;;;;;;;12.95;11.93;;;;;;;21.25;58.84;100749.38;5053450;28;20050;-83
2022/08/31 07:26:53;;;;;;;12.93;11.60;;;;;;;21.55;58.56;100772.00;5065276;28;20136;-72
2022/08/31 07:29:21;;;;;;;13.38;11.75;;;;;;;21.72;58.22;100761.28;5059931;28;20055;-72
2022/08/31 07:31:49;;;;;;;13.05;11.93;;;;;;;21.91;57.99;100757.88;5064493;28;20139;-73
2022/08/31 07:34:24;;;;;;;12.60;11.52;;;;;;;22.27;57.98;100764.84;5059609;28;20044;-70
2022/08/31 07:42:42;;;;;;;15.32;14.05;;;;;;;23.28;56.64;100764.03;5061415;28;20136;-70
2022/08/31 07:45:22;;;;;;;13.05;11.85;;;;;;;23.57;56.47;100768.50;5066353;28;20049;-71
2022/08/31 07:47:56;;;;;;;12.65;11.45;;;;;;;23.79;56.16;100769.97;5065673;28;20117;-71
2022/08/31 07:50:25;;;;;;;13.40;11.93;;;;;;;24.06;55.24;100764.56;5062515;28;20131;-72
2022/08/31 07:52:54;;;;;;;11.80;10.80;;;;;;;24.56;54.90;100777.31;5065861;28;20140;-73
2022/08/31 07:55:23;;;;;;;11.45;10.50;;;;;;;24.85;54.58;100777.97;5061852;28;20180;-71
2022/08/31 07:57:53;;;;;;;16.27;14.85;;;;;;;25.06;53.82;100767.06;5062261;28;20114;-70
2022/08/31 08:00:26;;;;;;;15.40;14.05;;;;;;;25.35;53.62;100770.56;5062615;28;20044;-70
2022/08/31 08:02:53;;;;;;;15.80;10.95;;;;;;;25.59;53.14;100780.84;5063081;28;20439;-69
2022/08/31 08:05:24;;;;;;;13.63;11.45;;;;;;;25.91;52.04;100767.19;5059521;28;20056;-70
2022/08/31 08:07:57;;;;;;;12.32;11.32;;;;;;;26.16;51.68;100774.22;5065429;28;20053;-70
2022/08/31 08:10:25;;;;;;;13.77;12.60;;;;;;;26.31;51.33;100780.19;5069955;28;20041;-70
2022/08/31 08:13:01;;;;;;;14.40;13.30;;;;;;;26.47;51.18;100772.31;5066974;28;20148;-70
2022/08/31 08:15:33;;;;;;;15.45;13.05;;;;;;;26.98;50.42;100769.03;5054966;28;20041;-71
2022/08/31 08:18:03;;;;;;;14.23;12.98;;;;;;;27.33;49.40;100759.28;5061959;28;20064;-70
2022/08/31 08:20:31;;;;;;;14.38;12.90;;;;;;;27.57;48.91;100764.50;5060432;28;20127;-70
2022/08/31 08:23:14;;;;;;;15.05;13.77;;;;;;;27.65;48.65;100757.63;5067008;28;20079;-70
2022/08/31 08:25:45;;;;;;;13.50;12.18;;;;;;;27.86;48.15;100780.03;5069178;28;20106;-70
2022/08/31 08:28:16;;;;;;;15.23;12.48;;;;;;;28.02;47.95;100765.44;5062345;28;20099;-72
2022/08/31 08:31:04;;;;;;;12.43;11.45;;;;;;;28.41;47.38;100782.25;5069237;28;20044;-72
2022/08/31 08:33:33;;;;;;;13.60;12.50;;;;;;;28.65;46.94;100785.69;5064241;28;20502;-72
2022/08/31 08:36:03;;;;;;;12.43;11.52;;;;;;;28.76;45.94;100763.63;5064764;28;20084;-72
2022/08/31 08:38:30;;;;;;;12.60;11.55;;;;;;;29.10;45.38;100784.41;5065538;28;20072;-73
2022/08/31 08:40:59;;;;;;;11.73;10.93;;;;;;;29.21;45.53;100790.22;5061804;28;20119;-71
2022/08/31 08:43:31;;;;;;;12.32;11.50;;;;;;;28.88;45.74;100788.34;5064232;28;20139;-71
2022/08/31 08:46:01;;;;;;;15.18;14.00;;;;;;;28.45;45.77;100771.59;5065619;28;20132;-70
2022/08/31 08:48:50;;;;;;;14.98;13.82;;;;;;;28.28;45.82;100772.25;5064966;28;20063;-70
2022/08/31 08:51:25;;;;;;;15.65;13.98;;;;;;;28.12;45.94;100781.09;5064363;28;20052;-69
2022/08/31 08:54:01;;;;;;;16.42;14.73;;;;;;;27.74;46.55;100782.31;5065456;28;20095;-69
2022/08/31 08:56:28;;;;;;;16.60;15.02;;;;;;;27.88;46.22;100785.38;5065313;28;20136;-70
2022/08/31 08:58:59;;;;;;;17.42;15.73;;;;;;;27.70;46.26;100784.31;5066556;28;20060;-70
2022/08/31 09:01:28;;;;;;;17.85;16.10;;;;;;;27.49;46.61;100796.34;5067266;28;20075;-70
2022/08/31 09:04:07;;;;;;;15.57;13.88;;;;;;;27.19;46.91;100796.38;5070157;28;20083;-70
2022/08/31 09:06:52;;;;;;;14.95;13.55;;;;;;;26.91;47.19;100804.13;5065799;28;20045;-70
2022/08/31 09:09:40;;;;;;;13.40;12.40;;;;;;;26.53;47.72;100799.44;5063232;28;20049;-70
2022/08/31 09:12:23;;;;;;;13.65;12.65;;;;;;;27.04;47.56;100796.13;5065918;28;20139;-70
2022/08/31 09:15:14;;;;;;;13.75;12.43;;;;;;;28.03;46.35;100792.09;5066826;28;20153;-70
2022/08/31 09:18:09;;;;;;;14.57;13.32;;;;;;;28.76;44.89;100795.25;5067983;28;20055;-70
2022/08/31 09:20:36;;;;;;;14.07;12.77;;;;;;;29.46;43.81;100796.91;5066445;28;20584;-70
2022/08/31 09:23:06;;;;;;;13.75;12.32;;;;;;;30.17;42.69;100807.03;5064776;28;20128;-71
2022/08/31 09:25:50;;;;;;;12.85;11.65;;;;;;;30.63;42.40;100789.81;5066330;28;20070;-72
2022/08/31 09:28:33;;;;;;;15.10;13.63;;;;;;;30.51;42.36;100781.56;5063011;28;20055;-71
2022/08/31 09:31:01;;;;;;;12.40;11.18;;;;;;;30.07;42.43;100793.44;5061492;28;20143;-70
2022/08/31 09:33:31;;;;;;;14.63;13.00;;;;;;;29.76;43.12;100801.59;5063954;28;20087;-72
2022/08/31 09:36:18;;;;;;;14.80;13.02;;;;;;;29.20;43.50;100808.72;5065661;28;20577;-71
2022/08/31 09:38:46;;;;;;;12.48;11.25;;;;;;;28.60;44.52;100803.31;5064408;28;20079;-71
2022/08/31 09:41:27;;;;;;;13.88;12.57;;;;;;;28.62;44.63;100809.50;5070178;28;20123;-71
2022/08/31 09:44:16;;;;;;;12.73;11.73;;;;;;;29.01;44.07;100810.63;5070053;28;20094;-71
2022/08/31 09:46:55;;;;;;;12.57;11.57;;;;;;;29.02;43.56;100805.69;5066788;28;20079;-71
2022/08/31 09:49:37;;;;;;;12.68;11.68;;;;;;;28.89;44.28;100815.84;5070516;28;20063;-71
2022/08/31 09:55:28;;;;;;;13.80;12.45;;;;;;;29.44;43.26;100804.31;5056531;28;20052;-71
2022/08/31 09:58:06;;;;;;;12.70;11.57;;;;;;;30.17;42.81;100807.84;5051938;28;20132;-72
2022/08/31 10:00:38;;;;;;;12.20;11.20;;;;;;;30.65;42.25;100815.34;5047240;28;20101;-71
2022/08/31 10:03:27;;;;;;;12.20;11.20;;;;;;;30.99;41.65;100795.56;5067112;28;20083;-71
2022/08/31 10:05:55;;;;;;;11.88;10.90;;;;;;;31.48;40.80;100805.31;5060281;28;20057;-71
2022/08/31 10:08:41;;;;;;;11.70;10.73;;;;;;;31.66;40.16;100811.03;5059272;28;20057;-72
2022/08/31 10:11:16;;;;;;;12.45;11.43;;;;;;;31.15;40.49;100807.47;5063440;28;20408;-69
2022/08/31 10:13:55;;;;;;;12.63;11.68;;;;;;;31.00;40.40;100790.59;5063234;28;20607;-70
2022/08/31 10:16:46;;;;;;;12.95;11.60;;;;;;;31.09;40.27;100805.44;5069649;28;20048;-70
2022/08/31 10:19:49;;;;;;;14.52;13.40;;;;;;;31.23;39.69;100804.56;5061961;28;20146;-70
2022/08/31 10:22:24;;;;;;;13.63;12.52;;;;;;;30.43;40.72;100780.75;5065624;28;20072;-71
2022/08/31 10:25:20;;;;;;;10.88;10.13;;;;;;;30.53;40.42;100790.63;5067966;28;20151;-71
2022/08/31 10:27:58;;;;;;;10.98;10.18;;;;;;;30.11;40.23;100797.97;5066048;28;20135;-70
2022/08/31 10:31:15;;;;;;;13.13;12.40;;;;;;;29.53;41.05;100801.88;5061318;28;20059;-70
2022/08/31 10:36:40;;;;;;;11.85;10.90;;;;;;;29.42;41.02;100793.19;5059050;28;20416;-70
2022/08/31 10:39:35;;;;;;;12.55;11.68;;;;;;;29.59;41.47;100782.16;5061080;28;20151;-69
2022/08/31 10:42:06;;;;;;;11.27;10.30;;;;;;;30.36;40.29;100769.22;5035856;28;20509;-70
2022/08/31 10:44:41;;;;;;;10.90;10.20;;;;;;;30.96;39.86;100789.78;5059960;28;20147;-70
2022/08/31 10:47:15;;;;;;;11.80;10.98;;;;;;;31.13;39.41;100789.75;5062981;28;20051;-72
2022/08/31 10:50:02;;;;;;;11.20;10.18;;;;;;;31.62;38.85;100758.25;5066851;28;20048;-72
2022/08/31 10:52:41;;;;;;;13.13;12.00;;;;;;;32.30;38.01;100773.09;5065352;28;20044;-67
2022/08/31 10:55:27;;;;;;;10.57;9.63;;;;;;;32.59;37.48;100770.03;5061115;28;20136;-72
2022/08/31 10:58:07;;;;;;;12.43;11.32;;;;;;;33.18;36.52;100774.81;5067397;28;20133;-72
2022/08/31 11:01:00;;;;;;;12.68;11.57;;;;;;;34.14;35.21;100764.03;5065011;28;20055;-71
2022/08/31 11:03:27;;;;;;;10.57;9.73;;;;;;;35.42;33.09;100778.34;5066381;28;20189;-72
2022/08/31 11:05:59;;;;;;;9.77;8.90;;;;;;;35.44;32.74;100763.38;5064743;28;20094;-71
2022/08/31 11:08:56;;;;;;;10.60;9.60;;;;;;;35.08;33.62;100759.13;5063879;28;20474;-71
2022/08/31 11:11:36;;;;;;;9.52;8.73;;;;;;;34.71;33.53;100768.91;5063362;28;20127;-69
2022/08/31 11:14:47;;;;;;;10.25;9.52;;;;;;;34.35;34.78;100757.06;5063806;28;20511;-73
2022/08/31 11:17:20;;;;;;;10.90;9.90;;;;;;;34.62;33.74;100754.97;5054275;28;20151;-71
2022/08/31 11:19:58;;;;;;;12.30;11.50;;;;;;;34.88;33.91;100749.53;5062707;28;20131;-70
2022/08/31 11:22:39;;;;;;;10.02;9.00;;;;;;;34.99;33.61;100767.56;5066139;28;20101;-72
2022/08/31 11:25:13;;;;;;;9.70;8.90;;;;;;;34.47;33.75;100753.56;5058010;28;20063;-72
2022/08/31 11:27:49;;;;;;;10.25;9.55;;;;;;;33.62;34.04;100710.16;5060047;28;20055;-71
2022/08/31 11:30:27;;;;;;;10.23;9.30;;;;;;;33.60;34.61;100738.72;5057020;28;20056;-71
2022/08/31 11:32:59;;;;;;;10.57;9.77;;;;;;;33.93;34.03;100744.88;5062757;28;20048;-71
2022/08/31 11:35:48;;;;;;;11.55;10.60;;;;;;;34.16;34.19;100747.88;5060775;28;20468;-72
2022/08/31 11:38:40;;;;;;;13.88;12.27;;;;;;;34.42;33.94;100746.16;5060653;28;20075;-70
2022/08/31 11:41:10;;;;;;;11.50;10.43;;;;;;;34.27;33.35;100712.91;5065568;28;20509;-71
2022/08/31 11:43:43;;;;;;;10.15;9.32;;;;;;;34.43;33.35;100742.03;5059998;28;20049;-70
2022/08/31 11:46:25;;;;;;;9.63;9.00;;;;;;;34.00;33.29;100747.69;5060068;28;20221;-70
2022/08/31 11:48:53;;;;;;;9.45;8.65;;;;;;;34.13;33.13;100757.44;5062095;28;20086;-69